Fabens, Texas
Current Conditions -  °F | °C
As of 4:44 PM on Thursday 27 Nov 2014 (Local Time) from MMCS Reporting Station
Clear Clear  
Wind Chill: 63°   Ceiling: Unl
Heat Index: 63°   Visibility: 10mi
Dew Point: 36°   Wind: 0mph
Humidity: 37%   Direction: NA
Pressure: 30.24"   Gusts: NA
Location:  31.51°N, 106.15°W
Report Text: MMCS 272344Z 00000KT 10SM SKC 17/02 A3024 RMK SLP213 57040 911
Loading
Personal Weather Stations






























Interactive Weather Map New forecast layout! Learn more

10-Day Weather Forecast

Advertisements
Track Severe Weather on mobile